Theologos P . — SZNB — position and weather

sailwx.info

Track history (hours):
 
Tides and Currents Weather Stations Pressure Air Temp Water Temp Dewpoint Dewpoint Depression Visibility Wind Speed Wind Dir Waves Ship Positions

Theologos P .

Last reported at 2015-Mar-01 05:33 UTC. Time now 2015-Mar-01 07:00 UTC.
Position N 37°28' E 025°20'.

Length 118 m; draft 4.5 m.

Type: Ship. MMSI: 240521000.

Date/timePositionNaut miles runAvg speedWind from/ knotsBaromVisibWave heightAir tempDewpointWater temp
2015-Mar-01 05:33N 37°28' E 025°20'0 0.0
2015-Mar-01 04:33N 37°28' E 025°20'0 0.0
2015-Mar-01 03:33N 37°28' E 025°20'0 0.0
2015-Mar-01 02:33N 37°28' E 025°20'0 0.0
2015-Mar-01 01:33N 37°28' E 025°20'0 0.0
2015-Mar-01 00:33N 37°28' E 025°20'0 0.0
2015-Feb-28 23:33N 37°28' E 025°20'0 0.0
2015-Feb-28 22:33N 37°28' E 025°20'0 0.0
2015-Feb-28 21:33N 37°28' E 025°20'0 0.0
2015-Feb-28 20:33N 37°28' E 025°20'9 9.3
2015-Feb-28 19:33N 37°32' E 025°09'1715.9
2015-Feb-28 18:31N 37°43' E 024°53'3314.4
2015-Feb-28 16:14N 37°57' E 024°16'7 4.4
2015-Feb-28 14:33N 37°60' E 024°07'4515.1
2015-Feb-28 11:33N 37°38' E 024°57'1212.5
2015-Feb-28 10:34N 37°31' E 025°10'8 8.3
2015-Feb-28 09:34N 37°28' E 025°20'0 0.0
2015-Feb-28 08:33N 37°28' E 025°20'0 0.0
2015-Feb-28 07:34N 37°28' E 025°20'0 0.0
2015-Feb-28 06:33N 37°28' E 025°20'0 0.0
2015-Feb-28 05:33N 37°28' E 025°20'0 0.0
2015-Feb-28 04:33N 37°28' E 025°20'0 0.0
2015-Feb-28 03:33N 37°28' E 025°20'0 0.0
2015-Feb-28 02:33N 37°28' E 025°20'0 0.0
2015-Feb-28 01:33N 37°28' E 025°20'0 0.0
2015-Feb-28 00:33N 37°28' E 025°20'0 0.0
2015-Feb-27 23:34N 37°28' E 025°20'0 0.0
2015-Feb-27 22:34N 37°28' E 025°20'0 0.0
2015-Feb-27 21:33N 37°28' E 025°20'1 0.8
2015-Feb-27 20:33N 37°28' E 025°19'9 9.1
2015-Feb-27 19:34N 37°32' E 025°08'4814.8
2015-Feb-27 16:18N 37°57' E 024°16'13 2.2
2015-Feb-27 10:24N 38°01' E 024°01'1517.4
2015-Feb-27 09:33N 37°56' E 024°18'3013.9
2015-Feb-27 07:26N 37°43' E 024°52'1719.1
2015-Feb-27 06:34N 37°32' E 025°08'1010.2
2015-Feb-27 05:33N 37°28' E 025°20'0 0.0
2015-Feb-27 04:33N 37°28' E 025°20'0 0.0
2015-Feb-27 03:34N 37°28' E 025°20'0 0.0
2015-Feb-27 02:34N 37°28' E 025°20'0 0.0
2015-Feb-27 01:33N 37°28' E 025°20'0 0.0
2015-Feb-27 00:34N 37°28' E 025°20'0 0.0
2015-Feb-26 23:34N 37°28' E 025°20'0 0.0
2015-Feb-26 22:33N 37°28' E 025°20'0 0.0
2015-Feb-26 21:33N 37°28' E 025°20'0 0.2
2015-Feb-26 20:34N 37°28' E 025°19'1110.7
2015-Feb-26 19:33N 37°32' E 025°07'4714.6
2015-Feb-26 16:20N 37°57' E 024°16'13 2.2
2015-Feb-26 10:19N 38°01' E 024°01'1317.1
2015-Feb-26 09:33N 37°57' E 024°16'3515.1
2015-Feb-26 07:15N 37°40' E 024°55'1319.1
2015-Feb-26 06:33N 37°32' E 025°08'10 9.9
2015-Feb-26 05:33N 37°28' E 025°20'0 0.0
2015-Feb-26 04:33N 37°28' E 025°20'0 0.0
2015-Feb-26 03:33N 37°28' E 025°20'0 0.0
2015-Feb-26 02:33N 37°28' E 025°20'0 0.0
2015-Feb-26 01:33N 37°28' E 025°20'0 0.0
2015-Feb-26 00:33N 37°28' E 025°20'0 0.0
2015-Feb-25 23:33N 37°28' E 025°20'0 0.0
2015-Feb-25 22:33N 37°28' E 025°20'0 0.0
2015-Feb-25 21:33N 37°28' E 025°20'0 0.0
2015-Feb-25 20:33N 37°28' E 025°20'9 9.4
2015-Feb-25 19:33N 37°32' E 025°09'4815.0
2015-Feb-25 16:22N 37°57' E 024°17'14 2.3
2015-Feb-25 10:23N 38°01' E 024°01'4514.8
2015-Feb-25 07:21N 37°42' E 024°52'1519.3
2015-Feb-25 06:33N 37°32' E 025°08'1110.5
2015-Feb-25 05:33N 37°28' E 025°20'0 0.0
2015-Feb-25 04:33N 37°28' E 025°20'0 0.0
2015-Feb-25 03:33N 37°28' E 025°20'0 0.0
2015-Feb-25 02:33N 37°28' E 025°20'0 0.0
2015-Feb-25 01:33N 37°28' E 025°20'0 0.0
2015-Feb-25 00:33N 37°28' E 025°20'0 0.0
2015-Feb-24 23:33N 37°28' E 025°20'0 0.0
2015-Feb-24 22:33N 37°28' E 025°20'0 0.0
2015-Feb-24 21:33N 37°28' E 025°20'0 0.0
2015-Feb-24 20:33N 37°28' E 025°20'9 9.2
2015-Feb-24 19:33N 37°32' E 025°09'4915.0
2015-Feb-24 16:16N 37°57' E 024°16'12 2.1
2015-Feb-24 10:20N 38°01' E 024°01'1517.8
2015-Feb-24 09:29N 37°56' E 024°19'3014.4
2015-Feb-24 07:24N 37°43' E 024°53'1619.2
2015-Feb-24 06:33N 37°32' E 025°09'10 9.8
2015-Feb-24 05:33N 37°28' E 025°20'0 0.0
2015-Feb-24 04:33N 37°28' E 025°20'0 0.0
2015-Feb-24 03:33N 37°28' E 025°20'0 0.0
2015-Feb-24 02:33N 37°28' E 025°20'0 0.0
2015-Feb-24 01:33N 37°28' E 025°20'8 8.3
2015-Feb-24 00:34N 37°31' E 025°10'1212.4
2015-Feb-23 23:33N 37°37' E 024°56'3618.0
2015-Feb-23 21:34N 37°55' E 024°17'14 9.5
2015-Feb-23 20:05N 38°01' E 024°01'916.3
2015-Feb-23 19:32N 37°58' E 024°11'5 1.5
2015-Feb-23 16:18N 37°57' E 024°17'10 5.6
2015-Feb-23 14:33N 38°00' E 024°06'2218.2
2015-Feb-23 13:20N 37°54' E 024°32'2413.7
2015-Feb-23 11:33N 37°38' E 024°56'1212.5
2015-Feb-23 10:33N 37°32' E 025°09'9 8.9
2015-Feb-23 09:33N 37°28' E 025°20'0 0.0
2015-Feb-23 08:33N 37°28' E 025°20'0 0.0
2015-Feb-23 07:33N 37°28' E 025°20'0 0.0
2015-Feb-23 06:33N 37°28' E 025°20'0 0.0
2015-Feb-23 05:33N 37°28' E 025°20'0 0.0
2015-Feb-23 04:33N 37°28' E 025°20'0 0.0
2015-Feb-23 03:33N 37°28' E 025°20'0 0.0
2015-Feb-23 02:33N 37°28' E 025°20'0 0.0
2015-Feb-23 01:33N 37°28' E 025°20'0 0.0
2015-Feb-23 00:33N 37°28' E 025°20'0 0.0
2015-Feb-22 23:33N 37°28' E 025°20'0 0.0
2015-Feb-22 22:33N 37°28' E 025°20'0 0.0
2015-Feb-22 21:33N 37°28' E 025°20'0 0.0
2015-Feb-22 20:33N 37°28' E 025°20'9 9.3
2015-Feb-22 19:33N 37°32' E 025°09'1916.6
2015-Feb-22 18:26N 37°44' E 024°51'2914.0
2015-Feb-22 16:21N 37°57' E 024°18'1417.9
2015-Feb-22 15:33N 38°01' E 024°01'3 2.9
2015-Feb-22 14:33N 38°01' E 024°04'4615.2
2015-Feb-22 11:33N 37°40' E 024°56'1414.1
2015-Feb-22 10:33N 37°31' E 025°10'8 8.5
2015-Feb-22 09:33N 37°28' E 025°20'0 0.0
2015-Feb-22 08:33N 37°28' E 025°20'0 0.0
2015-Feb-22 07:33N 37°28' E 025°20'0 0.0
2015-Feb-22 06:33N 37°28' E 025°20'0 0.0
2015-Feb-22 05:33N 37°28' E 025°20'0 0.0
2015-Feb-22 04:33N 37°28' E 025°20'0 0.0
2015-Feb-22 03:33N 37°28' E 025°20'0 0.0
2015-Feb-22 02:33N 37°28' E 025°20'0 0.0
2015-Feb-22 01:33N 37°28' E 025°20'0 0.0
2015-Feb-22 00:33N 37°28' E 025°20'0 0.0
2015-Feb-21 23:33N 37°28' E 025°20'0 0.0
2015-Feb-21 22:33N 37°28' E 025°20'0 0.0
2015-Feb-21 21:33N 37°28' E 025°20'0 0.0
2015-Feb-21 20:33N 37°28' E 025°20'9 9.3
2015-Feb-21 19:33N 37°32' E 025°09'5911.7
2015-Feb-21 14:33N 38°01' E 024°05'2119.0
2015-Feb-21 13:25N 37°54' E 024°30'2513.3
2015-Feb-21 11:33N 37°40' E 024°57'1414.3
2015-Feb-21 10:33N 37°31' E 025°10'8 8.0
2015-Feb-21 09:34N 37°28' E 025°20'0 0.0
2015-Feb-21 08:33N 37°28' E 025°20'0 0.0
2015-Feb-21 07:34N 37°28' E 025°20'0 0.0
2015-Feb-21 06:34N 37°28' E 025°20'0 0.0
2015-Feb-21 05:34N 37°28' E 025°20'0 0.0
2015-Feb-21 04:33N 37°28' E 025°20'0 0.0
2015-Feb-21 03:34N 37°28' E 025°20'0 0.0
2015-Feb-21 02:34N 37°28' E 025°20'0 0.0
2015-Feb-21 01:33N 37°28' E 025°20'0 0.0
2015-Feb-21 00:34N 37°28' E 025°20'0 0.0
2015-Feb-20 23:33N 37°28' E 025°20'0 0.0
2015-Feb-20 22:34N 37°28' E 025°20'0 0.0
2015-Feb-20 21:34N 37°28' E 025°20'0 0.0
2015-Feb-20 20:34N 37°28' E 025°20'1010.3
2015-Feb-20 19:34N 37°32' E 025°08'43 4.2
2015-Feb-20 09:21N 37°56' E 024°23'3214.4
2015-Feb-20 07:05N 37°39' E 024°58'1018.3
2015-Feb-20 06:33N 37°32' E 025°07'1110.8
2015-Feb-20 05:33N 37°28' E 025°20'0 0.0
2015-Feb-20 04:33N 37°28' E 025°20'0 0.0
2015-Feb-20 03:33N 37°28' E 025°20'0 0.0
2015-Feb-20 02:33N 37°28' E 025°20'0 0.0
2015-Feb-20 01:33N 37°28' E 025°20'0 0.0
2015-Feb-20 00:33N 37°28' E 025°20'0 0.0
2015-Feb-19 23:33N 37°28' E 025°20'0 0.0
2015-Feb-19 22:33N 37°28' E 025°20'0 0.0
2015-Feb-19 21:33N 37°28' E 025°20'0 0.0
2015-Feb-19 20:33N 37°28' E 025°20'9 9.3
2015-Feb-19 19:33N 37°32' E 025°09'61 6.7
2015-Feb-19 10:29N 38°01' E 024°01'1617.5
2015-Feb-19 09:33N 37°55' E 024°21'3414.2
2015-Feb-19 07:09N 37°38' E 024°58'1117.9
2015-Feb-19 06:33N 37°32' E 025°09'  
Track history (hours):
 
Tides and Currents Weather Stations Pressure Air Temp Water Temp Dewpoint Dewpoint Depression Visibility Wind Speed Wind Dir Waves Ship Positions

Theologos P .

Last reported at 2015-Mar-01 05:33 UTC. Time now 2015-Mar-01 07:00 UTC.
Position N 37°28' E 025°20'.

Length 118 m; draft 4.5 m.

Type: Ship. MMSI: 240521000.

Date/timePositionNaut miles runAvg speedWind from/ knotsBaromVisibWave heightAir tempDewpointWater temp
2015-Mar-01 05:33N 37°28' E 025°20'0 0.0
2015-Mar-01 04:33N 37°28' E 025°20'0 0.0
2015-Mar-01 03:33N 37°28' E 025°20'0 0.0
2015-Mar-01 02:33N 37°28' E 025°20'0 0.0
2015-Mar-01 01:33N 37°28' E 025°20'0 0.0
2015-Mar-01 00:33N 37°28' E 025°20'0 0.0
2015-Feb-28 23:33N 37°28' E 025°20'0 0.0
2015-Feb-28 22:33N 37°28' E 025°20'0 0.0
2015-Feb-28 21:33N 37°28' E 025°20'0 0.0
2015-Feb-28 20:33N 37°28' E 025°20'9 9.3
2015-Feb-28 19:33N 37°32' E 025°09'1715.9
2015-Feb-28 18:31N 37°43' E 024°53'3314.4
2015-Feb-28 16:14N 37°57' E 024°16'7 4.4
2015-Feb-28 14:33N 37°60' E 024°07'4515.1
2015-Feb-28 11:33N 37°38' E 024°57'1212.5
2015-Feb-28 10:34N 37°31' E 025°10'8 8.3
2015-Feb-28 09:34N 37°28' E 025°20'0 0.0
2015-Feb-28 08:33N 37°28' E 025°20'0 0.0
2015-Feb-28 07:34N 37°28' E 025°20'0 0.0
2015-Feb-28 06:33N 37°28' E 025°20'0 0.0
2015-Feb-28 05:33N 37°28' E 025°20'0 0.0
2015-Feb-28 04:33N 37°28' E 025°20'0 0.0
2015-Feb-28 03:33N 37°28' E 025°20'0 0.0
2015-Feb-28 02:33N 37°28' E 025°20'0 0.0
2015-Feb-28 01:33N 37°28' E 025°20'0 0.0
2015-Feb-28 00:33N 37°28' E 025°20'0 0.0
2015-Feb-27 23:34N 37°28' E 025°20'0 0.0
2015-Feb-27 22:34N 37°28' E 025°20'0 0.0
2015-Feb-27 21:33N 37°28' E 025°20'1 0.8
2015-Feb-27 20:33N 37°28' E 025°19'9 9.1
2015-Feb-27 19:34N 37°32' E 025°08'4814.8
2015-Feb-27 16:18N 37°57' E 024°16'13 2.2
2015-Feb-27 10:24N 38°01' E 024°01'1517.4
2015-Feb-27 09:33N 37°56' E 024°18'3013.9
2015-Feb-27 07:26N 37°43' E 024°52'1719.1
2015-Feb-27 06:34N 37°32' E 025°08'1010.2
2015-Feb-27 05:33N 37°28' E 025°20'0 0.0
2015-Feb-27 04:33N 37°28' E 025°20'0 0.0
2015-Feb-27 03:34N 37°28' E 025°20'0 0.0
2015-Feb-27 02:34N 37°28' E 025°20'0 0.0
2015-Feb-27 01:33N 37°28' E 025°20'0 0.0
2015-Feb-27 00:34N 37°28' E 025°20'0 0.0
2015-Feb-26 23:34N 37°28' E 025°20'0 0.0
2015-Feb-26 22:33N 37°28' E 025°20'0 0.0
2015-Feb-26 21:33N 37°28' E 025°20'0 0.2
2015-Feb-26 20:34N 37°28' E 025°19'1110.7
2015-Feb-26 19:33N 37°32' E 025°07'4714.6
2015-Feb-26 16:20N 37°57' E 024°16'13 2.2
2015-Feb-26 10:19N 38°01' E 024°01'1317.1
2015-Feb-26 09:33N 37°57' E 024°16'3515.1
2015-Feb-26 07:15N 37°40' E 024°55'1319.1
2015-Feb-26 06:33N 37°32' E 025°08'10 9.9
2015-Feb-26 05:33N 37°28' E 025°20'0 0.0
2015-Feb-26 04:33N 37°28' E 025°20'0 0.0
2015-Feb-26 03:33N 37°28' E 025°20'0 0.0
2015-Feb-26 02:33N 37°28' E 025°20'0 0.0
2015-Feb-26 01:33N 37°28' E 025°20'0 0.0
2015-Feb-26 00:33N 37°28' E 025°20'0 0.0
2015-Feb-25 23:33N 37°28' E 025°20'0 0.0
2015-Feb-25 22:33N 37°28' E 025°20'0 0.0
2015-Feb-25 21:33N 37°28' E 025°20'0 0.0
2015-Feb-25 20:33N 37°28' E 025°20'9 9.4
2015-Feb-25 19:33N 37°32' E 025°09'4815.0
2015-Feb-25 16:22N 37°57' E 024°17'14 2.3
2015-Feb-25 10:23N 38°01' E 024°01'4514.8
2015-Feb-25 07:21N 37°42' E 024°52'1519.3
2015-Feb-25 06:33N 37°32' E 025°08'1110.5
2015-Feb-25 05:33N 37°28' E 025°20'0 0.0
2015-Feb-25 04:33N 37°28' E 025°20'0 0.0
2015-Feb-25 03:33N 37°28' E 025°20'0 0.0
2015-Feb-25 02:33N 37°28' E 025°20'0 0.0
2015-Feb-25 01:33N 37°28' E 025°20'0 0.0
2015-Feb-25 00:33N 37°28' E 025°20'0 0.0
2015-Feb-24 23:33N 37°28' E 025°20'0 0.0
2015-Feb-24 22:33N 37°28' E 025°20'0 0.0
2015-Feb-24 21:33N 37°28' E 025°20'0 0.0
2015-Feb-24 20:33N 37°28' E 025°20'9 9.2
2015-Feb-24 19:33N 37°32' E 025°09'4915.0
2015-Feb-24 16:16N 37°57' E 024°16'12 2.1
2015-Feb-24 10:20N 38°01' E 024°01'1517.8
2015-Feb-24 09:29N 37°56' E 024°19'3014.4
2015-Feb-24 07:24N 37°43' E 024°53'1619.2
2015-Feb-24 06:33N 37°32' E 025°09'10 9.8
2015-Feb-24 05:33N 37°28' E 025°20'0 0.0
2015-Feb-24 04:33N 37°28' E 025°20'0 0.0
2015-Feb-24 03:33N 37°28' E 025°20'0 0.0
2015-Feb-24 02:33N 37°28' E 025°20'0 0.0
2015-Feb-24 01:33N 37°28' E 025°20'8 8.3
2015-Feb-24 00:34N 37°31' E 025°10'1212.4
2015-Feb-23 23:33N 37°37' E 024°56'3618.0
2015-Feb-23 21:34N 37°55' E 024°17'14 9.5
2015-Feb-23 20:05N 38°01' E 024°01'916.3
2015-Feb-23 19:32N 37°58' E 024°11'5 1.5
2015-Feb-23 16:18N 37°57' E 024°17'10 5.6
2015-Feb-23 14:33N 38°00' E 024°06'2218.2
2015-Feb-23 13:20N 37°54' E 024°32'2413.7
2015-Feb-23 11:33N 37°38' E 024°56'1212.5
2015-Feb-23 10:33N 37°32' E 025°09'9 8.9
2015-Feb-23 09:33N 37°28' E 025°20'0 0.0
2015-Feb-23 08:33N 37°28' E 025°20'0 0.0
2015-Feb-23 07:33N 37°28' E 025°20'0 0.0
2015-Feb-23 06:33N 37°28' E 025°20'0 0.0
2015-Feb-23 05:33N 37°28' E 025°20'0 0.0
2015-Feb-23 04:33N 37°28' E 025°20'0 0.0
2015-Feb-23 03:33N 37°28' E 025°20'0 0.0
2015-Feb-23 02:33N 37°28' E 025°20'0 0.0
2015-Feb-23 01:33N 37°28' E 025°20'0 0.0
2015-Feb-23 00:33N 37°28' E 025°20'0 0.0
2015-Feb-22 23:33N 37°28' E 025°20'0 0.0
2015-Feb-22 22:33N 37°28' E 025°20'0 0.0
2015-Feb-22 21:33N 37°28' E 025°20'0 0.0
2015-Feb-22 20:33N 37°28' E 025°20'9 9.3
2015-Feb-22 19:33N 37°32' E 025°09'1916.6
2015-Feb-22 18:26N 37°44' E 024°51'2914.0
2015-Feb-22 16:21N 37°57' E 024°18'1417.9
2015-Feb-22 15:33N 38°01' E 024°01'3 2.9
2015-Feb-22 14:33N 38°01' E 024°04'4615.2
2015-Feb-22 11:33N 37°40' E 024°56'1414.1
2015-Feb-22 10:33N 37°31' E 025°10'8 8.5
2015-Feb-22 09:33N 37°28' E 025°20'0 0.0
2015-Feb-22 08:33N 37°28' E 025°20'0 0.0
2015-Feb-22 07:33N 37°28' E 025°20'0 0.0
2015-Feb-22 06:33N 37°28' E 025°20'0 0.0
2015-Feb-22 05:33N 37°28' E 025°20'0 0.0
2015-Feb-22 04:33N 37°28' E 025°20'0 0.0
2015-Feb-22 03:33N 37°28' E 025°20'0 0.0
2015-Feb-22 02:33N 37°28' E 025°20'0 0.0
2015-Feb-22 01:33N 37°28' E 025°20'0 0.0
2015-Feb-22 00:33N 37°28' E 025°20'0 0.0
2015-Feb-21 23:33N 37°28' E 025°20'0 0.0
2015-Feb-21 22:33N 37°28' E 025°20'0 0.0
2015-Feb-21 21:33N 37°28' E 025°20'0 0.0
2015-Feb-21 20:33N 37°28' E 025°20'9 9.3
2015-Feb-21 19:33N 37°32' E 025°09'5911.7
2015-Feb-21 14:33N 38°01' E 024°05'2119.0
2015-Feb-21 13:25N 37°54' E 024°30'2513.3
2015-Feb-21 11:33N 37°40' E 024°57'1414.3
2015-Feb-21 10:33N 37°31' E 025°10'8 8.0
2015-Feb-21 09:34N 37°28' E 025°20'0 0.0
2015-Feb-21 08:33N 37°28' E 025°20'0 0.0
2015-Feb-21 07:34N 37°28' E 025°20'0 0.0
2015-Feb-21 06:34N 37°28' E 025°20'0 0.0
2015-Feb-21 05:34N 37°28' E 025°20'0 0.0
2015-Feb-21 04:33N 37°28' E 025°20'0 0.0
2015-Feb-21 03:34N 37°28' E 025°20'0 0.0
2015-Feb-21 02:34N 37°28' E 025°20'0 0.0
2015-Feb-21 01:33N 37°28' E 025°20'0 0.0
2015-Feb-21 00:34N 37°28' E 025°20'0 0.0
2015-Feb-20 23:33N 37°28' E 025°20'0 0.0
2015-Feb-20 22:34N 37°28' E 025°20'0 0.0
2015-Feb-20 21:34N 37°28' E 025°20'0 0.0
2015-Feb-20 20:34N 37°28' E 025°20'1010.3
2015-Feb-20 19:34N 37°32' E 025°08'43 4.2
2015-Feb-20 09:21N 37°56' E 024°23'3214.4
2015-Feb-20 07:05N 37°39' E 024°58'1018.3
2015-Feb-20 06:33N 37°32' E 025°07'1110.8
2015-Feb-20 05:33N 37°28' E 025°20'0 0.0
2015-Feb-20 04:33N 37°28' E 025°20'0 0.0
2015-Feb-20 03:33N 37°28' E 025°20'0 0.0
2015-Feb-20 02:33N 37°28' E 025°20'0 0.0
2015-Feb-20 01:33N 37°28' E 025°20'0 0.0
2015-Feb-20 00:33N 37°28' E 025°20'0 0.0
2015-Feb-19 23:33N 37°28' E 025°20'0 0.0
2015-Feb-19 22:33N 37°28' E 025°20'0 0.0
2015-Feb-19 21:33N 37°28' E 025°20'0 0.0
2015-Feb-19 20:33N 37°28' E 025°20'9 9.3
2015-Feb-19 19:33N 37°32' E 025°09'61 6.7
2015-Feb-19 10:29N 38°01' E 024°01'1617.5
2015-Feb-19 09:33N 37°55' E 024°21'3414.2
2015-Feb-19 07:09N 37°38' E 024°58'1117.9
2015-Feb-19 06:33N 37°32' E 025°09'  

Dump ship's entire track history